Meteorología y climatología de Navarra
Datos de la estación - Meteo Navarra

Estación de Tudela (Montes del Cierzo) GN

Altitud 314 m.


Datos desde el 14/08/2019 hasta el 15/08/2019 en horario solar
Los datos son PROVISIONALES

Anterior Página 1 de 1 Siguiente Descargar: Formato para Excel 2000 o superior   Formato csv   Formato para OpenOffice Calc
Fecha Temperatura Humedad relativa Radiación global Insolación Precipitación Vel. viento 10 m Vel. viento 10 m Dir. viento 10 m
ºC % W/m² s l/m² m/s km/h º
14/08/2019 0:00 14.5 70 0.0 0 0.0 3.4 12.1 289
14/08/2019 0:10 14.7 68 0.0 0 0.0 3.4 12.1 290
14/08/2019 0:20 14.7 68 0.0 0 0.0 3.4 12.1 303
14/08/2019 0:30 14.8 68 0.0 0 0.0 3.6 12.9 308
14/08/2019 0:40 14.9 67 0.0 0 0.0 3.1 11.1 309
14/08/2019 0:50 14.8 67 0.0 0 0.0 2.9 10.3 305
14/08/2019 1:00 14.7 66 0.0 0 0.0 2.8 10.1 295
14/08/2019 1:10 14.5 67 0.0 0 0.0 2.4 8.6 289
14/08/2019 1:20 14.1 70 0.0 0 0.0 1.3 4.8 288
14/08/2019 1:30 13.5 71 0.0 0 0.0 0.4 1.3 305
14/08/2019 1:40 13.1 78 0.0 0 0.0 0.5 1.9 184
14/08/2019 1:50 12.7 78 0.0 0 0.0 1.5 5.3 225
14/08/2019 2:00 12.7 77 0.0 0 0.0 1.9 6.9 255
14/08/2019 2:10 12.7 74 0.0 0 0.0 1.4 5.2 239
14/08/2019 2:20 12.8 75 0.0 0 0.0 1.8 6.4 236
14/08/2019 2:30 12.7 74 0.0 0 0.0 1.7 6.0 261
14/08/2019 2:40 12.7 73 0.0 0 0.0 1.2 4.4 283
14/08/2019 2:50 12.4 75 0.0 0 0.0 1.2 4.3 273
14/08/2019 3:00 12.1 79 0.0 0 0.0 1.8 6.5 267
14/08/2019 3:10 11.8 78 0.0 0 0.0 1.9 6.8 272
14/08/2019 3:20 11.9 76 0.0 0 0.0 2.3 8.2 274
14/08/2019 3:30 12.2 74 0.0 0 0.0 2.3 8.4 277
14/08/2019 3:40 12.5 74 0.0 0 0.0 2.2 7.8 270
14/08/2019 3:50 12.6 75 0.0 0 0.0 1.9 6.8 241
14/08/2019 4:00 12.4 76 0.0 0 0.0 1.9 6.7 256
14/08/2019 4:10 12.3 74 0.0 0 0.0 0.8 2.9 291
14/08/2019 4:20 12.1 78 0.0 0 0.0 0.7 2.6 244
14/08/2019 4:30 11.6 79 0.0 0 0.0 1.0 3.5 276
14/08/2019 4:40 11.6 79 0.0 0 0.0 1.1 4.0 267
14/08/2019 4:50 11.5 79 0.0 0 0.0 1.1 4.1 222
14/08/2019 5:00 11.5 79 0.0 0 0.0 1.3 4.5 239
14/08/2019 5:10 11.5 80 0.0 0 0.0 1.4 5.2 237
14/08/2019 5:20 11.4 80 0.0 0 0.0 2.0 7.2 235
14/08/2019 5:30 11.2 82 7.4 0 0.0 1.9 6.9 271
14/08/2019 5:40 11.7 78 31.3 372 0.0 2.1 7.6 299
14/08/2019 5:50 12.5 75 36.8 230 0.0 1.7 6.1 296
14/08/2019 6:00 12.4 77 29.9 0 0.0 1.5 5.4 299
14/08/2019 6:10 12.4 76 39.8 70 0.0 2.0 7.1 285
14/08/2019 6:20 13.2 77 133.1 600 0.0 2.1 7.6 252
14/08/2019 6:30 14.4 73 163.5 600 0.0 1.8 6.3 264
14/08/2019 6:40 15.5 65 194.1 600 0.0 1.8 6.6 277
14/08/2019 6:50 16.1 63 226.1 600 0.0 2.1 7.4 289
14/08/2019 7:00 16.6 63 259.7 600 0.0 1.7 6.1 307
14/08/2019 7:10 17.3 61 293.6 600 0.0 1.4 4.9 302
14/08/2019 7:20 17.7 59 326.8 600 0.0 1.4 4.9 270
14/08/2019 7:30 17.7 59 360.3 600 0.0 1.9 6.9 262
14/08/2019 7:40 18.1 58 394.2 600 0.0 1.9 6.8 290
14/08/2019 7:50 18.5 56 428.2 600 0.0 2.3 8.4 300
14/08/2019 8:00 19.3 54 461.1 600 0.0 2.1 7.4 314
14/08/2019 8:10 19.9 52 493.6 600 0.0 1.9 6.7 318
14/08/2019 8:20 20.6 51 524.9 600 0.0 2.8 9.9 332
14/08/2019 8:30 20.7 51 554.4 600 0.0 3.1 11.0 327
14/08/2019 8:40 21.1 50 584.8 600 0.0 2.9 10.4 346
14/08/2019 8:50 21.2 51 613.7 600 0.0 2.5 9.1 356
14/08/2019 9:00 21.0 51 642.3 600 0.0 2.4 8.7 356
14/08/2019 9:10 21.1 50 670.5 600 0.0 2.7 9.8 351
14/08/2019 9:20 22.0 47 698.1 600 0.0 2.7 9.6 343
14/08/2019 9:30 22.4 46 723.1 600 0.0 2.5 8.8 336
14/08/2019 9:40 22.9 44 746.3 600 0.0 2.7 9.7 347
14/08/2019 9:50 23.2 44 769.0 600 0.0 2.7 9.7 359
14/08/2019 10:00 23.1 44 790.1 600 0.0 3.2 11.5 356
14/08/2019 10:10 23.8 42 809.0 600 0.0 2.9 10.3 351
14/08/2019 10:20 24.2 40 829.0 600 0.0 2.7 9.6 348
14/08/2019 10:30 24.4 37 840.0 600 0.0 2.7 9.8 12
14/08/2019 10:40 25.0 36 860.0 600 0.0 2.5 9.0 358
14/08/2019 10:50 25.4 33 870.0 600 0.0 3.0 10.7 2
14/08/2019 11:00 26.0 33 854.0 600 0.0 2.1 7.6 2
14/08/2019 11:10 26.6 32 869.0 586 0.0 2.5 8.8 353
14/08/2019 11:20 26.6 32 638.7 496 0.0 2.1 7.6 343
14/08/2019 11:30 26.6 31 619.9 590 0.0 2.9 10.4 348
14/08/2019 11:40 26.9 31 538.2 570 0.0 2.8 10.1 349
14/08/2019 11:50 27.5 29 840.0 600 0.0 2.6 9.5 359
14/08/2019 12:00 27.7 28 580.5 480 0.0 3.0 10.9 358
14/08/2019 12:10 27.9 29 863.0 600 0.0 4.2 15.2 8
14/08/2019 12:20 28.6 29 972.0 600 0.0 4.0 14.5 352
14/08/2019 12:30 29.1 28 940.0 600 0.0 2.8 10.0 349
14/08/2019 12:40 29.7 28 924.0 600 0.0 3.1 11.3 346
14/08/2019 12:50 30.2 26 914.0 600 0.0 3.7 13.2 357
14/08/2019 13:00 30.5 26 904.0 600 0.0 3.3 11.8 346
14/08/2019 13:10 30.6 25 894.0 600 0.0 2.6 9.4 339
14/08/2019 13:20 30.8 24 882.0 600 0.0 2.8 9.9 325
14/08/2019 13:30 30.9 24 869.0 600 0.0 3.4 12.2 1
14/08/2019 13:40 30.9 24 858.0 600 0.0 3.8 13.8 1
14/08/2019 13:50 31.0 23 848.0 600 0.0 3.4 12.2 4
14/08/2019 14:00 31.2 23 833.0 600 0.0 3.2 11.4 352
14/08/2019 14:10 31.3 23 813.0 600 0.0 2.7 9.6 13
14/08/2019 14:20 31.3 22 796.2 600 0.0 2.2 8.0 32
14/08/2019 14:30 31.5 22 775.1 600 0.0 1.5 5.2 21
14/08/2019 14:40 31.9 22 753.1 600 0.0 1.8 6.4 38
14/08/2019 14:50 31.6 22 729.4 600 0.0 1.2 4.4 24
14/08/2019 15:00 32.2 22 706.8 600 0.0 1.9 6.8 338
14/08/2019 15:10 32.2 22 681.9 600 0.0 1.4 4.9 37
14/08/2019 15:20 32.1 23 655.7 600 0.0 2.1 7.6 335
14/08/2019 15:30 32.8 22 628.2 600 0.0 2.1 7.7 7
14/08/2019 15:40 32.4 22 601.2 600 0.0 3.6 12.9 13
14/08/2019 15:50 32.2 23 572.4 600 0.0 4.2 15.0 13
14/08/2019 16:00 32.5 24 541.8 600 0.0 5.2 18.6 353
14/08/2019 16:10 32.5 24 510.0 600 0.0 4.4 15.9 357
14/08/2019 16:20 32.4 25 477.6 600 0.0 4.8 17.3 353
14/08/2019 16:30 32.0 25 441.7 600 0.0 5.7 20.6 15
14/08/2019 16:40 30.9 28 412.3 600 0.0 7.3 26.3 16
14/08/2019 16:50 30.6 29 380.0 600 0.0 6.9 24.7 11
14/08/2019 17:00 30.1 30 347.5 600 0.0 6.9 24.9 11
14/08/2019 17:10 29.9 31 315.0 600 0.0 6.7 24.0 7
14/08/2019 17:20 29.4 32 282.9 600 0.0 6.2 22.4 8
14/08/2019 17:30 29.3 32 249.1 600 0.0 6.1 21.8 12
14/08/2019 17:40 29.0 33 215.9 600 0.0 5.9 21.4 8
14/08/2019 17:50 28.7 34 155.7 440 0.0 6.7 23.9 11
14/08/2019 18:00 28.2 35 140.2 524 0.0 7.0 25.0 8
14/08/2019 18:10 27.8 35 65.0 20 0.0 5.8 20.7 360
14/08/2019 18:20 27.3 36 61.3 178 0.0 5.7 20.4 360
14/08/2019 18:30 26.9 36 25.5 0 0.0 5.6 20.1 2
14/08/2019 18:40 26.5 38 19.9 0 0.0 4.7 17.0 2
14/08/2019 18:50 26.1 38 6.1 0 0.0 3.9 14.1 1
14/08/2019 19:00 25.6 40 0.0 0 0.0 3.8 13.6 354
14/08/2019 19:10 25.1 41 0.0 0 0.0 3.5 12.6 352
14/08/2019 19:20 24.7 42 0.0 0 0.0 3.0 10.8 350
14/08/2019 19:30 24.2 44 0.0 0 0.0 3.5 12.7 345
14/08/2019 19:40 24.1 45 0.0 0 0.0 4.3 15.5 344
14/08/2019 19:50 23.8 46 0.0 0 0.0 2.9 10.6 318
14/08/2019 20:00 23.7 48 0.0 0 0.0 3.5 12.6 320
14/08/2019 20:10 23.5 50 0.0 0 0.0 3.5 12.6 327
14/08/2019 20:20 23.3 51 0.0 0 0.0 2.2 7.9 318
14/08/2019 20:30 23.0 52 0.0 0 0.0 3.3 11.7 319
14/08/2019 20:40 22.8 54 0.0 0 0.0 4.5 16.3 334
14/08/2019 20:50 22.4 56 0.0 0 0.0 4.1 14.6 331
14/08/2019 21:00 22.2 57 0.0 0 0.0 3.6 12.8 328
14/08/2019 21:10 22.0 58 0.0 0 0.0 3.9 13.9 331
14/08/2019 21:20 21.9 59 0.0 0 0.0 4.0 14.5 330
14/08/2019 21:30 21.7 60 0.0 0 0.0 4.0 14.5 331
14/08/2019 21:40 21.5 61 0.0 0 0.0 5.1 18.4 342
14/08/2019 21:50 21.3 63 0.0 0 0.0 5.2 18.8 343
14/08/2019 22:00 21.1 64 0.0 0 0.0 5.3 18.9 343
14/08/2019 22:10 21.0 64 0.0 0 0.0 5.3 19.1 346
14/08/2019 22:20 20.9 64 0.0 0 0.0 5.1 18.2 345
14/08/2019 22:30 21.0 64 0.0 0 0.0 3.3 11.9 334
14/08/2019 22:40 20.9 65 0.0 0 0.0 2.8 10.0 325
14/08/2019 22:50 20.7 65 0.0 0 0.0 2.5 9.0 313
14/08/2019 23:00 20.7 65 0.0 0 0.0 3.1 11.3 309
14/08/2019 23:10 20.6 66 0.0 0 0.0 3.1 11.2 305
14/08/2019 23:20 20.4 66 0.0 0 0.0 3.5 12.4 311
14/08/2019 23:30 20.4 66 0.0 0 0.0 3.0 10.9 301
14/08/2019 23:40 20.1 67 0.0 0 0.0 2.9 10.5 289
14/08/2019 23:50 19.8 68 0.0 0 0.0 3.1 11.2 300
Anterior Página 1 de 1 Siguiente

NOTA: Tipo de datos según el color:
   - Valores diarios o 10 minutos correctos
   - Valores diarios calculados a partir de un número de datos 10 minutos menor que 144 y mayor que 120, o de un número de datos semihorarios menor que 48 y mayor que 40 (caso de las estaciones de Riegos de Navarra y del MARM)
   - Valores diez minutos estimados


Contacto        Enlaces        Aviso legal